KSLE/SLE METAR and TAF weather

Enter ICAO airport designator
Station Type Date Time Source
KSLE METAR 2020/02/19 10:56 UTC NOAA

KSLE 191056Z AUTO 00000KT 10SM CLR M01/M04 A3024 RMK AO2 SLP240 T10111039


Station Type Date Time Source
KSLE Decoded METAR 2020/02/19 10:56 UTC NOAA

SALEM MCNARY FIELD, OR, United States (KSLE) 44-54N 123-00W 59M
Feb 19, 2020 - 05:56 AM EST / 2020.02.19 1056 UTC
Wind: Calm:0
Visibility: 10 mile(s):0
Sky conditions: clear
Temperature: 30.0 F (-1.1 C)
Dew Point: 25.0 F (-3.9 C)
Relative Humidity: 81%
Pressure (altimeter): 30.24 in. Hg (1024 hPa)
ob: KSLE 191056Z AUTO 00000KT 10SM CLR M01/M04 A3024 RMK AO2 SLP240 T10111039
cycle: 11

Station Type Date Time Source
KSLE TAF 2020/02/19 12:36 UTC NOAA

TAF KSLE 191133Z 1912/2012 36004KT P6SM SKC
FM200300 35004KT P6SM SKC

Example: see airport list